sensor_id;sensor_type;location;lat;lon;timestamp;pressure;altitude;pressure_sealevel;temperature;humidity
31092;BME280;67728;53.122;12.776;2023-11-21T00:01:15;100059.53;;;6.05;100.00
31092;BME280;67728;53.122;12.776;2023-11-21T00:02:47;100061.38;;;5.89;100.00
31092;BME280;67728;53.122;12.776;2023-11-21T00:04:18;100051.94;;;5.91;100.00
31092;BME280;67728;53.122;12.776;2023-11-21T00:05:49;100052.78;;;5.94;100.00
31092;BME280;67728;53.122;12.776;2023-11-21T00:07:20;100045.94;;;5.89;100.00
31092;BME280;67728;53.122;12.776;2023-11-21T00:08:52;100046.75;;;5.94;100.00
31092;BME280;67728;53.122;12.776;2023-11-21T00:10:22;100050.16;;;5.99;100.00
31092;BME280;67728;53.122;12.776;2023-11-21T00:11:54;100051.91;;;5.94;100.00
31092;BME280;67728;53.122;12.776;2023-11-21T00:13:26;100052.81;;;5.88;100.00
31092;BME280;67728;53.122;12.776;2023-11-21T00:14:57;100049.38;;;5.79;100.00
31092;BME280;67728;53.122;12.776;2023-11-21T00:16:28;100052.81;;;5.79;100.00
31092;BME280;67728;53.122;12.776;2023-11-21T00:18:00;100054.53;;;5.80;100.00
31092;BME280;67728;53.122;12.776;2023-11-21T00:19:31;100048.56;;;5.74;100.00
31092;BME280;67728;53.122;12.776;2023-11-21T00:21:02;100051.19;;;5.69;100.00
31092;BME280;67728;53.122;12.776;2023-11-21T00:22:34;100058.06;;;5.67;100.00
31092;BME280;67728;53.122;12.776;2023-11-21T00:24:05;100057.22;;;5.67;100.00
31092;BME280;67728;53.122;12.776;2023-11-21T00:25:37;100059.78;;;5.67;100.00
31092;BME280;67728;53.122;12.776;2023-11-21T00:27:08;100070.09;;;5.62;100.00
31092;BME280;67728;53.122;12.776;2023-11-21T00:28:41;100068.38;;;5.64;100.00
31092;BME280;67728;53.122;12.776;2023-11-21T00:30:13;100072.66;;;5.61;100.00
31092;BME280;67728;53.122;12.776;2023-11-21T00:31:45;100070.09;;;5.64;100.00
31092;BME280;67728;53.122;12.776;2023-11-21T00:33:15;100076.94;;;5.65;100.00
31092;BME280;67728;53.122;12.776;2023-11-21T00:34:47;100076.06;;;5.66;100.00
31092;BME280;67728;53.122;12.776;2023-11-21T00:36:18;100076.06;;;5.70;100.00
31092;BME280;67728;53.122;12.776;2023-11-21T00:37:49;100078.63;;;5.70;100.00
31092;BME280;67728;53.122;12.776;2023-11-21T00:39:20;100082.03;;;5.75;100.00
31092;BME280;67728;53.122;12.776;2023-11-21T00:40:52;100076.84;;;5.77;100.00
31092;BME280;67728;53.122;12.776;2023-11-21T00:42:26;100075.16;;;5.74;100.00
31092;BME280;67728;53.122;12.776;2023-11-21T00:43:59;100088.88;;;5.75;100.00
31092;BME280;67728;53.122;12.776;2023-11-21T00:45:31;100089.75;;;5.75;100.00
31092;BME280;67728;53.122;12.776;2023-11-21T00:47:03;100093.16;;;5.77;100.00
31092;BME280;67728;53.122;12.776;2023-11-21T00:48:33;100092.28;;;5.77;100.00
31092;BME280;67728;53.122;12.776;2023-11-21T00:50:06;100098.28;;;5.76;100.00
31092;BME280;67728;53.122;12.776;2023-11-21T00:51:37;100088.06;;;5.73;100.00
31092;BME280;67728;53.122;12.776;2023-11-21T00:53:09;100096.66;;;5.63;100.00
31092;BME280;67728;53.122;12.776;2023-11-21T00:54:39;100096.66;;;5.64;100.00
31092;BME280;67728;53.122;12.776;2023-11-21T00:56:11;100098.34;;;5.73;100.00
31092;BME280;67728;53.122;12.776;2023-11-21T00:57:43;100105.16;;;5.78;100.00
31092;BME280;67728;53.122;12.776;2023-11-21T00:59:15;100103.44;;;5.77;100.00
31092;BME280;67728;53.122;12.776;2023-11-21T01:00:47;100108.59;;;5.76;100.00
31092;BME280;67728;53.122;12.776;2023-11-21T01:02:18;100108.59;;;5.76;100.00
31092;BME280;67728;53.122;12.776;2023-11-21T01:03:50;100109.47;;;5.73;100.00
31092;BME280;67728;53.122;12.776;2023-11-21T01:05:21;100110.31;;;5.77;100.00
31092;BME280;67728;53.122;12.776;2023-11-21T01:06:53;100100.84;;;5.79;100.00
31092;BME280;67728;53.122;12.776;2023-11-21T01:08:23;100118.94;;;5.73;100.00
31092;BME280;67728;53.122;12.776;2023-11-21T01:09:55;100115.47;;;5.78;100.00
31092;BME280;67728;53.122;12.776;2023-11-21T01:11:26;100120.59;;;5.80;100.00
31092;BME280;67728;53.122;12.776;2023-11-21T01:12:58;100105.19;;;5.71;100.00
31092;BME280;67728;53.122;12.776;2023-11-21T01:14:30;100123.19;;;5.78;100.00
31092;BME280;67728;53.122;12.776;2023-11-21T01:16:02;100118.88;;;5.76;100.00
31092;BME280;67728;53.122;12.776;2023-11-21T01:17:32;100120.59;;;5.77;100.00
31092;BME280;67728;53.122;12.776;2023-11-21T01:19:05;100118.88;;;5.77;100.00
31092;BME280;67728;53.122;12.776;2023-11-21T01:20:37;100116.34;;;5.71;100.00
31092;BME280;67728;53.122;12.776;2023-11-21T01:22:07;100118.91;;;5.71;100.00
31092;BME280;67728;53.122;12.776;2023-11-21T01:23:39;100124.09;;;5.65;100.00
31092;BME280;67728;53.122;12.776;2023-11-21T01:25:10;100115.53;;;5.65;100.00
31092;BME280;67728;53.122;12.776;2023-11-21T01:26:44;100117.22;;;5.69;100.00
31092;BME280;67728;53.122;12.776;2023-11-21T01:28:17;100119.81;;;5.70;100.00
31092;BME280;67728;53.122;12.776;2023-11-21T01:29:51;100116.41;;;5.62;100.00
31092;BME280;67728;53.122;12.776;2023-11-21T01:31:23;100123.28;;;5.59;100.00
31092;BME280;67728;53.122;12.776;2023-11-21T01:32:59;100118.97;;;5.61;100.00
31092;BME280;67728;53.122;12.776;2023-11-21T01:34:30;100121.53;;;5.61;100.00
31092;BME280;67728;53.122;12.776;2023-11-21T01:36:02;100117.28;;;5.55;100.00
31092;BME280;67728;53.122;12.776;2023-11-21T01:37:33;100123.25;;;5.60;100.00
31092;BME280;67728;53.122;12.776;2023-11-21T01:39:04;100124.13;;;5.59;100.00
31092;BME280;67728;53.122;12.776;2023-11-21T01:40:38;100120.69;;;5.62;100.00
31092;BME280;67728;53.122;12.776;2023-11-21T01:42:09;100124.13;;;5.61;100.00
31092;BME280;67728;53.122;12.776;2023-11-21T01:43:41;100128.41;;;5.62;100.00
31092;BME280;67728;53.122;12.776;2023-11-21T01:45:14;100123.25;;;5.65;100.00
31092;BME280;67728;53.122;12.776;2023-11-21T01:46:45;100131.84;;;5.59;100.00
31092;BME280;67728;53.122;12.776;2023-11-21T01:48:17;100135.28;;;5.61;100.00
31092;BME280;67728;53.122;12.776;2023-11-21T01:49:49;100135.28;;;5.55;100.00
31092;BME280;67728;53.122;12.776;2023-11-21T01:51:20;100133.56;;;5.59;100.00
31092;BME280;67728;53.122;12.776;2023-11-21T01:52:52;100136.13;;;5.59;100.00
31092;BME280;67728;53.122;12.776;2023-11-21T01:54:23;100142.19;;;5.47;100.00
31092;BME280;67728;53.122;12.776;2023-11-21T01:55:55;100137.06;;;5.46;100.00
31092;BME280;67728;53.122;12.776;2023-11-21T01:57:26;100136.19;;;5.45;100.00
31092;BME280;67728;53.122;12.776;2023-11-21T01:59:00;100141.34;;;5.43;100.00
31092;BME280;67728;53.122;12.776;2023-11-21T02:00:32;100143.03;;;5.54;100.00
31092;BME280;67728;53.122;12.776;2023-11-21T02:02:04;100145.59;;;5.52;100.00
31092;BME280;67728;53.122;12.776;2023-11-21T02:03:35;100147.31;;;5.47;100.00
31092;BME280;67728;53.122;12.776;2023-11-21T02:05:07;100153.34;;;5.48;100.00
31092;BME280;67728;53.122;12.776;2023-11-21T02:06:39;100151.63;;;5.48;100.00
31092;BME280;67728;53.122;12.776;2023-11-21T02:08:10;100149.88;;;5.50;100.00
31092;BME280;67728;53.122;12.776;2023-11-21T02:09:41;100158.47;;;5.51;100.00
31092;BME280;67728;53.122;12.776;2023-11-21T02:11:13;100160.22;;;5.46;100.00
31092;BME280;67728;53.122;12.776;2023-11-21T02:12:44;100156.75;;;5.54;100.00
31092;BME280;67728;53.122;12.776;2023-11-21T02:14:15;100163.59;;;5.46;100.00
31092;BME280;67728;53.122;12.776;2023-11-21T02:15:48;100161.94;;;5.40;100.00
31092;BME280;67728;53.122;12.776;2023-11-21T02:17:22;100164.47;;;5.43;100.00
31092;BME280;67728;53.122;12.776;2023-11-21T02:18:53;100158.47;;;5.48;100.00
31092;BME280;67728;53.122;12.776;2023-11-21T02:20:24;100172.22;;;5.45;100.00
31092;BME280;67728;53.122;12.776;2023-11-21T02:21:57;100166.22;;;5.41;100.00
31092;BME280;67728;53.122;12.776;2023-11-21T02:23:35;100172.19;;;5.50;100.00
31092;BME280;67728;53.122;12.776;2023-11-21T02:25:06;100162.78;;;5.49;100.00
31092;BME280;67728;53.122;12.776;2023-11-21T02:26:38;100167.94;;;5.36;100.00
31092;BME280;67728;53.122;12.776;2023-11-21T02:28:08;100171.38;;;5.37;100.00
31092;BME280;67728;53.122;12.776;2023-11-21T02:29:43;100157.66;;;5.33;100.00
31092;BME280;67728;53.122;12.776;2023-11-21T02:31:14;100173.09;;;5.33;100.00
31092;BME280;67728;53.122;12.776;2023-11-21T02:32:46;100171.34;;;5.38;100.00
31092;BME280;67728;53.122;12.776;2023-11-21T02:34:17;100163.63;;;5.44;100.00
31092;BME280;67728;53.122;12.776;2023-11-21T02:35:49;100164.47;;;5.47;100.00
31092;BME280;67728;53.122;12.776;2023-11-21T02:37:20;100166.22;;;5.40;100.00
31092;BME280;67728;53.122;12.776;2023-11-21T02:38:53;100162.75;;;5.53;100.00
31092;BME280;67728;53.122;12.776;2023-11-21T02:40:23;100163.66;;;5.35;100.00
31092;BME280;67728;53.122;12.776;2023-11-21T02:41:56;100163.63;;;5.41;100.00
31092;BME280;67728;53.122;12.776;2023-11-21T02:43:27;100163.66;;;5.43;100.00
31092;BME280;67728;53.122;12.776;2023-11-21T02:45:00;100163.63;;;5.48;100.00
31092;BME280;67728;53.122;12.776;2023-11-21T02:46:30;100159.34;;;5.45;100.00
31092;BME280;67728;53.122;12.776;2023-11-21T02:48:02;100167.09;;;5.40;100.00
31092;BME280;67728;53.122;12.776;2023-11-21T02:49:33;100165.41;;;5.32;100.00
31092;BME280;67728;53.122;12.776;2023-11-21T02:51:06;100167.94;;;5.42;100.00
31092;BME280;67728;53.122;12.776;2023-11-21T02:52:37;100171.38;;;5.37;100.00
31092;BME280;67728;53.122;12.776;2023-11-21T02:54:10;100163.66;;;5.38;100.00
31092;BME280;67728;53.122;12.776;2023-11-21T02:55:42;100172.25;;;5.37;100.00
31092;BME280;67728;53.122;12.776;2023-11-21T02:57:13;100172.19;;;5.50;100.00
31092;BME280;67728;53.122;12.776;2023-11-21T02:58:45;100171.41;;;5.32;100.00
31092;BME280;67728;53.122;12.776;2023-11-21T03:00:16;100175.66;;;5.33;100.00
31092;BME280;67728;53.122;12.776;2023-11-21T03:01:48;100168.78;;;5.38;100.00
31092;BME280;67728;53.122;12.776;2023-11-21T03:03:20;100180.78;;;5.39;100.00
31092;BME280;67728;53.122;12.776;2023-11-21T03:04:54;100173.91;;;5.41;100.00
31092;BME280;67728;53.122;12.776;2023-11-21T03:06:24;100180.78;;;5.44;100.00
31092;BME280;67728;53.122;12.776;2023-11-21T03:07:56;100179.06;;;5.41;100.00
31092;BME280;67728;53.122;12.776;2023-11-21T03:09:29;100184.19;;;5.46;100.00
31092;BME280;67728;53.122;12.776;2023-11-21T03:10:59;100173.91;;;5.41;100.00
31092;BME280;67728;53.122;12.776;2023-11-21T03:12:33;100179.06;;;5.41;100.00
31092;BME280;67728;53.122;12.776;2023-11-21T03:14:03;100182.53;;;5.28;100.00
31092;BME280;67728;53.122;12.776;2023-11-21T03:15:35;100169.72;;;5.18;100.00
31092;BME280;67728;53.122;12.776;2023-11-21T03:17:06;100190.25;;;5.28;100.00
31092;BME280;67728;53.122;12.776;2023-11-21T03:18:37;100198.00;;;5.21;100.00
31092;BME280;67728;53.122;12.776;2023-11-21T03:20:09;100195.41;;;5.24;100.00
31092;BME280;67728;53.122;12.776;2023-11-21T03:21:44;100186.81;;;5.31;100.00
31092;BME280;67728;53.122;12.776;2023-11-21T03:23:14;100199.66;;;5.31;100.00
31092;BME280;67728;53.122;12.776;2023-11-21T03:24:47;100196.28;;;5.21;100.00
31092;BME280;67728;53.122;12.776;2023-11-21T03:26:18;100191.09;;;5.27;100.00
31092;BME280;67728;53.122;12.776;2023-11-21T03:27:50;100201.38;;;5.30;100.00
31092;BME280;67728;53.122;12.776;2023-11-21T03:29:20;100203.09;;;5.31;100.00
31092;BME280;67728;53.122;12.776;2023-11-21T03:30:53;100203.97;;;5.29;100.00
31092;BME280;67728;53.122;12.776;2023-11-21T03:32:23;100205.69;;;5.19;100.00
31092;BME280;67728;53.122;12.776;2023-11-21T03:33:55;100200.56;;;5.15;100.00
31092;BME280;67728;53.122;12.776;2023-11-21T03:35:26;100197.16;;;5.19;100.00
31092;BME280;67728;53.122;12.776;2023-11-21T03:36:58;100208.25;;;5.19;100.00
31092;BME280;67728;53.122;12.776;2023-11-21T03:38:29;100209.13;;;5.17;100.00
31092;BME280;67728;53.122;12.776;2023-11-21T03:40:02;100212.56;;;5.17;100.00
31092;BME280;67728;53.122;12.776;2023-11-21T03:41:34;100215.13;;;5.20;100.00
31092;BME280;67728;53.122;12.776;2023-11-21T03:43:06;100214.25;;;5.17;100.00
31092;BME280;67728;53.122;12.776;2023-11-21T03:44:36;100218.56;;;5.24;100.00
31092;BME280;67728;53.122;12.776;2023-11-21T03:46:08;100212.56;;;5.17;100.00
31092;BME280;67728;53.122;12.776;2023-11-21T03:47:38;100216.00;;;5.15;100.00
31092;BME280;67728;53.122;12.776;2023-11-21T03:49:10;100218.56;;;5.16;100.00
31092;BME280;67728;53.122;12.776;2023-11-21T03:50:42;100227.13;;;5.09;100.00
31092;BME280;67728;53.122;12.776;2023-11-21T03:52:14;100228.00;;;5.01;100.00
31092;BME280;67728;53.122;12.776;2023-11-21T03:53:44;100224.56;;;5.09;100.00
31092;BME280;67728;53.122;12.776;2023-11-21T03:55:17;100233.13;;;5.08;100.00
31092;BME280;67728;53.122;12.776;2023-11-21T03:56:49;100238.28;;;5.10;100.00
31092;BME280;67728;53.122;12.776;2023-11-21T03:58:19;100237.41;;;5.09;100.00
31092;BME280;67728;53.122;12.776;2023-11-21T03:59:51;100240.00;;;5.11;100.00
31092;BME280;67728;53.122;12.776;2023-11-21T04:01:23;100242.56;;;5.15;100.00
31092;BME280;67728;53.122;12.776;2023-11-21T04:02:55;100245.97;;;5.17;100.00
31092;BME280;67728;53.122;12.776;2023-11-21T04:04:26;100248.56;;;5.01;100.00
31092;BME280;67728;53.122;12.776;2023-11-21T04:05:57;100245.97;;;5.04;100.00
31092;BME280;67728;53.122;12.776;2023-11-21T04:07:28;100251.13;;;4.96;100.00
31092;BME280;67728;53.122;12.776;2023-11-21T04:08:59;100257.97;;;4.93;100.00
31092;BME280;67728;53.122;12.776;2023-11-21T04:10:32;100247.69;;;5.00;100.00
31092;BME280;67728;53.122;12.776;2023-11-21T04:12:03;100250.28;;;5.02;100.00
31092;BME280;67728;53.122;12.776;2023-11-21T04:13:35;100252.00;;;5.03;100.00
31092;BME280;67728;53.122;12.776;2023-11-21T04:15:07;100255.41;;;5.00;100.00
31092;BME280;67728;53.122;12.776;2023-11-21T04:16:40;100258.84;;;4.95;100.00
31092;BME280;67728;53.122;12.776;2023-11-21T04:18:11;100268.25;;;4.96;100.00
31092;BME280;67728;53.122;12.776;2023-11-21T04:19:42;100261.41;;;4.99;100.00
31092;BME280;67728;53.122;12.776;2023-11-21T04:21:13;100263.13;;;5.05;100.00
31092;BME280;67728;53.122;12.776;2023-11-21T04:22:45;100272.53;;;4.88;100.00
31092;BME280;67728;53.122;12.776;2023-11-21T04:24:15;100262.25;;;4.92;100.00
31092;BME280;67728;53.122;12.776;2023-11-21T04:25:48;100275.13;;;4.91;100.00
31092;BME280;67728;53.122;12.776;2023-11-21T04:27:19;100275.13;;;4.89;100.00
31092;BME280;67728;53.122;12.776;2023-11-21T04:28:50;100280.25;;;4.80;100.00
31092;BME280;67728;53.122;12.776;2023-11-21T04:30:21;100286.25;;;4.88;100.00
31092;BME280;67728;53.122;12.776;2023-11-21T04:31:53;100281.13;;;4.91;100.00
31092;BME280;67728;53.122;12.776;2023-11-21T04:33:25;100283.69;;;4.83;100.00
31092;BME280;67728;53.122;12.776;2023-11-21T04:34:55;100285.41;;;4.91;100.00
31092;BME280;67728;53.122;12.776;2023-11-21T04:36:27;100282.81;;;4.80;100.00
31092;BME280;67728;53.122;12.776;2023-11-21T04:38:00;100281.97;;;4.72;100.00
31092;BME280;67728;53.122;12.776;2023-11-21T04:39:31;100283.66;;;4.71;100.00
31092;BME280;67728;53.122;12.776;2023-11-21T04:41:05;100293.09;;;4.69;100.00
31092;BME280;67728;53.122;12.776;2023-11-21T04:42:36;100290.53;;;4.75;100.00
31092;BME280;67728;53.122;12.776;2023-11-21T04:44:08;100296.53;;;4.70;100.00
31092;BME280;67728;53.122;12.776;2023-11-21T04:45:39;100302.47;;;4.63;100.00
31092;BME280;67728;53.122;12.776;2023-11-21T04:47:11;100286.22;;;4.58;100.00
31092;BME280;67728;53.122;12.776;2023-11-21T04:48:42;100296.50;;;4.65;100.00
31092;BME280;67728;53.122;12.776;2023-11-21T04:50:14;100301.63;;;4.64;100.00
31092;BME280;67728;53.122;12.776;2023-11-21T04:51:45;100302.50;;;4.72;100.00
31092;BME280;67728;53.122;12.776;2023-11-21T04:53:16;100303.34;;;4.71;100.00
31092;BME280;67728;53.122;12.776;2023-11-21T04:54:47;100307.66;;;4.72;100.00
31092;BME280;67728;53.122;12.776;2023-11-21T04:56:20;100307.66;;;4.79;100.00
31092;BME280;67728;53.122;12.776;2023-11-21T04:57:50;100306.78;;;4.74;100.00
31092;BME280;67728;53.122;12.776;2023-11-21T04:59:22;100305.06;;;4.70;100.00
31092;BME280;67728;53.122;12.776;2023-11-21T05:00:54;100302.50;;;4.66;100.00
31092;BME280;67728;53.122;12.776;2023-11-21T05:02:26;100311.06;;;4.68;100.00
31092;BME280;67728;53.122;12.776;2023-11-21T05:03:57;100305.06;;;4.61;100.00
31092;BME280;67728;53.122;12.776;2023-11-21T05:05:28;100315.34;;;4.67;100.00
31092;BME280;67728;53.122;12.776;2023-11-21T05:07:00;100313.66;;;4.72;100.00
31092;BME280;67728;53.122;12.776;2023-11-21T05:08:32;100321.31;;;4.68;100.00
31092;BME280;67728;53.122;12.776;2023-11-21T05:10:04;100317.88;;;4.52;100.00
31092;BME280;67728;53.122;12.776;2023-11-21T05:11:39;100320.44;;;4.52;100.00
31092;BME280;67728;53.122;12.776;2023-11-21T05:13:11;100328.16;;;4.60;100.00
31092;BME280;67728;53.122;12.776;2023-11-21T05:14:41;100327.31;;;4.62;100.00
31092;BME280;67728;53.122;12.776;2023-11-21T05:16:13;100323.91;;;4.63;100.00
31092;BME280;67728;53.122;12.776;2023-11-21T05:17:44;100333.28;;;4.55;100.00
31092;BME280;67728;53.122;12.776;2023-11-21T05:19:17;100340.16;;;4.61;100.00
31092;BME280;67728;53.122;12.776;2023-11-21T05:20:48;100327.31;;;4.56;100.00
31092;BME280;67728;53.122;12.776;2023-11-21T05:22:20;100330.69;;;4.49;100.00
31092;BME280;67728;53.122;12.776;2023-11-21T05:23:52;100337.59;;;4.61;100.00
31092;BME280;67728;53.122;12.776;2023-11-21T05:25:22;100335.84;;;4.55;100.00
31092;BME280;67728;53.122;12.776;2023-11-21T05:26:55;100340.13;;;4.43;100.00
31092;BME280;67728;53.122;12.776;2023-11-21T05:28:26;100350.34;;;4.41;100.00
31092;BME280;67728;53.122;12.776;2023-11-21T05:29:58;100348.69;;;4.48;100.00
31092;BME280;67728;53.122;12.776;2023-11-21T05:31:28;100352.09;;;4.50;100.00
31092;BME280;67728;53.122;12.776;2023-11-21T05:33:00;100345.28;;;4.53;100.00
31092;BME280;67728;53.122;12.776;2023-11-21T05:34:30;100346.09;;;4.45;100.00
31092;BME280;67728;53.122;12.776;2023-11-21T05:36:02;100352.06;;;4.38;100.00
31092;BME280;67728;53.122;12.776;2023-11-21T05:37:34;100358.94;;;4.45;100.00
31092;BME280;67728;53.122;12.776;2023-11-21T05:39:05;100358.94;;;4.45;100.00
31092;BME280;67728;53.122;12.776;2023-11-21T05:40:36;100358.06;;;4.35;100.00
31092;BME280;67728;53.122;12.776;2023-11-21T05:42:08;100365.75;;;4.41;100.00
31092;BME280;67728;53.122;12.776;2023-11-21T05:43:41;100367.47;;;4.38;100.00
31092;BME280;67728;53.122;12.776;2023-11-21T05:45:14;100361.50;;;4.42;100.00
31092;BME280;67728;53.122;12.776;2023-11-21T05:46:45;100370.88;;;4.32;100.00
31092;BME280;67728;53.122;12.776;2023-11-21T05:48:17;100363.19;;;4.41;100.00
31092;BME280;67728;53.122;12.776;2023-11-21T05:49:48;100372.63;;;4.44;100.00
31092;BME280;67728;53.122;12.776;2023-11-21T05:51:21;100371.78;;;4.46;100.00
31092;BME280;67728;53.122;12.776;2023-11-21T05:55:19;100380.34;;;4.45;100.00
31092;BME280;67728;53.122;12.776;2023-11-21T05:56:51;100379.47;;;4.42;100.00
31092;BME280;67728;53.122;12.776;2023-11-21T05:58:23;100387.16;;;4.37;100.00
31092;BME280;67728;53.122;12.776;2023-11-21T05:59:55;100388.03;;;4.47;100.00
31092;BME280;67728;53.122;12.776;2023-11-21T06:01:26;100387.19;;;4.45;100.00
31092;BME280;67728;53.122;12.776;2023-11-21T06:02:58;100390.59;;;4.42;100.00
31092;BME280;67728;53.122;12.776;2023-11-21T06:04:30;100394.94;;;4.55;100.00
31092;BME280;67728;53.122;12.776;2023-11-21T06:06:01;100400.94;;;4.56;100.00
31092;BME280;67728;53.122;12.776;2023-11-21T06:07:34;100396.59;;;4.44;100.00
31092;BME280;67728;53.122;12.776;2023-11-21T06:09:05;100401.75;;;4.52;100.00
31092;BME280;67728;53.122;12.776;2023-11-21T06:10:39;100405.16;;;4.49;100.00
31092;BME280;67728;53.122;12.776;2023-11-21T06:12:09;100406.88;;;4.43;100.00
31092;BME280;67728;53.122;12.776;2023-11-21T06:13:42;100404.28;;;4.40;100.00
31092;BME280;67728;53.122;12.776;2023-11-21T06:15:13;100409.47;;;4.46;100.00
31092;BME280;67728;53.122;12.776;2023-11-21T06:16:45;100409.47;;;4.52;100.00
31092;BME280;67728;53.122;12.776;2023-11-21T06:18:15;100400.88;;;4.45;100.00
31092;BME280;67728;53.122;12.776;2023-11-21T06:19:49;100406.00;;;4.42;100.00
31092;BME280;67728;53.122;12.776;2023-11-21T06:21:20;100406.03;;;4.50;100.00
31092;BME280;67728;53.122;12.776;2023-11-21T06:22:51;100422.31;;;4.53;100.00
31092;BME280;67728;53.122;12.776;2023-11-21T06:24:22;100417.16;;;4.52;100.00
31092;BME280;67728;53.122;12.776;2023-11-21T06:25:54;100414.59;;;4.46;100.00
31092;BME280;67728;53.122;12.776;2023-11-21T06:27:24;100422.28;;;4.43;100.00
31092;BME280;67728;53.122;12.776;2023-11-21T06:28:57;100419.75;;;4.58;100.00
31092;BME280;67728;53.122;12.776;2023-11-21T06:30:28;100424.91;;;4.59;100.00
31092;BME280;67728;53.122;12.776;2023-11-21T06:32:00;100425.75;;;4.54;100.00
31092;BME280;67728;53.122;12.776;2023-11-21T06:33:30;100422.34;;;4.61;100.00
31092;BME280;67728;53.122;12.776;2023-11-21T06:35:03;100427.50;;;4.59;100.00
31092;BME280;67728;53.122;12.776;2023-11-21T06:36:34;100425.72;;;4.48;100.00
31092;BME280;67728;53.122;12.776;2023-11-21T06:38:06;100433.47;;;4.57;100.00
31092;BME280;67728;53.122;12.776;2023-11-21T06:39:36;100425.75;;;4.58;100.00
31092;BME280;67728;53.122;12.776;2023-11-21T06:41:08;100430.88;;;4.54;100.00
31092;BME280;67728;53.122;12.776;2023-11-21T06:42:40;100422.31;;;4.58;100.00
31092;BME280;67728;53.122;12.776;2023-11-21T06:44:12;100426.59;;;4.56;100.00
31092;BME280;67728;53.122;12.776;2023-11-21T06:45:44;100429.19;;;4.56;100.00
31092;BME280;67728;53.122;12.776;2023-11-21T06:47:16;100421.47;;;4.57;100.00
31092;BME280;67728;53.122;12.776;2023-11-21T06:48:47;100430.94;;;4.64;100.00
31092;BME280;67728;53.122;12.776;2023-11-21T06:50:19;100427.50;;;4.67;100.00
31092;BME280;67728;53.122;12.776;2023-11-21T06:51:51;100424.03;;;4.56;100.00
31092;BME280;67728;53.122;12.776;2023-11-21T06:53:25;100435.94;;;4.39;100.00
31092;BME280;67728;53.122;12.776;2023-11-21T06:54:56;100439.38;;;4.38;100.00
31092;BME280;67728;53.122;12.776;2023-11-21T06:56:27;100436.00;;;4.51;100.00
31092;BME280;67728;53.122;12.776;2023-11-21T06:57:58;100442.00;;;4.48;100.00
31092;BME280;67728;53.122;12.776;2023-11-21T06:59:31;100447.97;;;4.49;100.00
31092;BME280;67728;53.122;12.776;2023-11-21T07:01:02;100444.50;;;4.39;100.00
31092;BME280;67728;53.122;12.776;2023-11-21T07:02:36;100456.50;;;4.45;100.00
31092;BME280;67728;53.122;12.776;2023-11-21T07:04:07;100459.13;;;4.51;100.00
31092;BME280;67728;53.122;12.776;2023-11-21T07:05:39;100462.56;;;4.51;100.00
31092;BME280;67728;53.122;12.776;2023-11-21T07:07:09;100460.00;;;4.60;100.00
31092;BME280;67728;53.122;12.776;2023-11-21T07:08:41;100454.81;;;4.45;100.00
31092;BME280;67728;53.122;12.776;2023-11-21T07:10:13;100470.25;;;4.57;100.00
31092;BME280;67728;53.122;12.776;2023-11-21T07:11:46;100465.97;;;4.55;100.00
31092;BME280;67728;53.122;12.776;2023-11-21T07:13:18;100472.00;;;4.57;100.00
31092;BME280;67728;53.122;12.776;2023-11-21T07:14:51;100468.56;;;4.61;100.00
31092;BME280;67728;53.122;12.776;2023-11-21T07:16:23;100477.97;;;4.53;100.00
31092;BME280;67728;53.122;12.776;2023-11-21T07:17:55;100471.13;;;4.58;100.00
31092;BME280;67728;53.122;12.776;2023-11-21T07:19:27;100481.41;;;4.62;100.00
31092;BME280;67728;53.122;12.776;2023-11-21T07:20:58;100479.72;;;4.64;100.00
31092;BME280;67728;53.122;12.776;2023-11-21T07:22:29;100477.19;;;4.72;100.00
31092;BME280;67728;53.122;12.776;2023-11-21T07:24:00;100475.41;;;4.59;100.00
31092;BME280;67728;53.122;12.776;2023-11-21T07:25:32;100479.75;;;4.67;100.00
31092;BME280;67728;53.122;12.776;2023-11-21T07:27:04;100485.69;;;4.60;100.00
31092;BME280;67728;53.122;12.776;2023-11-21T07:28:35;100486.59;;;4.70;100.00
31092;BME280;67728;53.122;12.776;2023-11-21T07:30:09;100480.56;;;4.63;100.00
31092;BME280;67728;53.122;12.776;2023-11-21T07:31:41;100482.31;;;4.69;100.00
31092;BME280;67728;53.122;12.776;2023-11-21T07:33:12;100482.28;;;4.66;100.00
31092;BME280;67728;53.122;12.776;2023-11-21T07:34:43;100480.63;;;4.72;100.00
31092;BME280;67728;53.122;12.776;2023-11-21T07:36:14;100486.59;;;4.71;100.00
31092;BME280;67728;53.122;12.776;2023-11-21T07:37:48;100484.03;;;4.67;100.00
31092;BME280;67728;53.122;12.776;2023-11-21T07:39:19;100491.72;;;4.67;100.00
31092;BME280;67728;53.122;12.776;2023-11-21T07:40:51;100490.00;;;4.66;100.00
31092;BME280;67728;53.122;12.776;2023-11-21T07:42:22;100497.72;;;4.69;100.00
31092;BME280;67728;53.122;12.776;2023-11-21T07:43:54;100501.97;;;4.64;100.00
31092;BME280;67728;53.122;12.776;2023-11-21T07:45:27;100496.03;;;4.69;100.00
31092;BME280;67728;53.122;12.776;2023-11-21T07:46:59;100502.81;;;4.63;100.00
31092;BME280;67728;53.122;12.776;2023-11-21T07:48:30;100511.41;;;4.63;100.00
31092;BME280;67728;53.122;12.776;2023-11-21T07:50:02;100507.16;;;4.74;100.00
31092;BME280;67728;53.122;12.776;2023-11-21T07:51:33;100513.97;;;4.66;100.00
31092;BME280;67728;53.122;12.776;2023-11-21T07:53:05;100521.66;;;4.60;100.00
31092;BME280;67728;53.122;12.776;2023-11-21T07:54:37;100523.34;;;4.54;100.00
31092;BME280;67728;53.122;12.776;2023-11-21T07:56:09;100525.09;;;4.64;100.00